HBLMB LFSB-EDTF
Flight info
| Callsign | HBLMB |
|---|---|
| Flight time | 0h 19m |
| Altitude | 7000 |
| Route | ELBEG DCT AMRUP/N0175F060 DCT ALINE |
| Aircraft | DA42/L-SBDGRY/S |
Departure
| Time | 2026-04-16 14:34 |
|---|---|
| Airport | EuroAirport Basel–Mulhouse–Freiburg (LFSB) |
Arrival
| Time | 2026-04-16 14:53 |
|---|---|
| Airport | Freiburg im Breisgau Airfield (EDTF) |
| Time | Latitude | Longitude | Altitude | Speed | Heading |
|---|---|---|---|---|---|
| 2026-04-16 14:27 | 47.60292 | 7.52526 | 884 ft | 0 kts | 317° |
| 2026-04-16 14:30 | 47.60288 | 7.52497 | 884 ft | 7 kts | 155° |
| 2026-04-16 14:31 | 47.60222 | 7.52475 | 884 ft | 12 kts | 200° |
| 2026-04-16 14:31 | 47.60147 | 7.52404 | 884 ft | 9 kts | 140° |
| 2026-04-16 14:31 | 47.60008 | 7.52508 | 884 ft | 28 kts | 154° |
| 2026-04-16 14:31 | 47.59840 | 7.52626 | 884 ft | 34 kts | 153° |
| 2026-04-16 14:32 | 47.59636 | 7.52766 | 884 ft | 28 kts | 154° |
| 2026-04-16 14:32 | 47.59485 | 7.52871 | 884 ft | 21 kts | 154° |
| 2026-04-16 14:32 | 47.59355 | 7.52965 | 884 ft | 25 kts | 153° |
| 2026-04-16 14:32 | 47.59173 | 7.53086 | 885 ft | 30 kts | 154° |
| 2026-04-16 14:33 | 47.59028 | 7.53141 | 884 ft | 24 kts | 235° |
| 2026-04-16 14:33 | 47.58933 | 7.52574 | 886 ft | 83 kts | 260° |
| 2026-04-16 14:33 | 47.58807 | 7.51677 | 1136 ft | 94 kts | 274° |
| 2026-04-16 14:33 | 47.59253 | 7.51000 | 1366 ft | 110 kts | 3° |
| 2026-04-16 14:34 | 47.59717 | 7.51848 | 1589 ft | 120 kts | 80° |
| 2026-04-16 14:34 | 47.59887 | 7.53154 | 1718 ft | 136 kts | 72° |
| 2026-04-16 14:34 | 47.60386 | 7.54340 | 1962 ft | 138 kts | 49° |
| 2026-04-16 14:34 | 47.61051 | 7.55412 | 2080 ft | 147 kts | 47° |
| 2026-04-16 14:35 | 47.61814 | 7.56520 | 2071 ft | 158 kts | 33° |
| 2026-04-16 14:35 | 47.62839 | 7.56972 | 2241 ft | 155 kts | 9° |
| 2026-04-16 14:35 | 47.63898 | 7.57178 | 2443 ft | 152 kts | 7° |
| 2026-04-16 14:35 | 47.64948 | 7.57374 | 2650 ft | 151 kts | 7° |
| 2026-04-16 14:36 | 47.65516 | 7.57479 | 2762 ft | 150 kts | 7° |
| 2026-04-16 14:36 | 47.66185 | 7.57602 | 2869 ft | 150 kts | 7° |
| 2026-04-16 14:36 | 47.67227 | 7.57847 | 2950 ft | 156 kts | 18° |
| 2026-04-16 14:37 | 47.68238 | 7.58524 | 2955 ft | 162 kts | 27° |
| 2026-04-16 14:37 | 47.69259 | 7.59294 | 2956 ft | 166 kts | 27° |
| 2026-04-16 14:37 | 47.70302 | 7.60052 | 3004 ft | 166 kts | 26° |
| 2026-04-16 14:37 | 47.71320 | 7.60772 | 3186 ft | 159 kts | 25° |
| 2026-04-16 14:38 | 47.72311 | 7.61469 | 3365 ft | 156 kts | 26° |
| 2026-04-16 14:38 | 47.73285 | 7.62156 | 3539 ft | 154 kts | 26° |
| 2026-04-16 14:38 | 47.74248 | 7.62835 | 3718 ft | 153 kts | 26° |
| 2026-04-16 14:38 | 47.75196 | 7.63504 | 3888 ft | 152 kts | 26° |
| 2026-04-16 14:39 | 47.76164 | 7.64189 | 3966 ft | 159 kts | 25° |
| 2026-04-16 14:39 | 47.77186 | 7.64909 | 3966 ft | 165 kts | 25° |
| 2026-04-16 14:39 | 47.78233 | 7.65651 | 3967 ft | 168 kts | 25° |
| 2026-04-16 14:39 | 47.79293 | 7.66402 | 3967 ft | 170 kts | 25° |
| 2026-04-16 14:40 | 47.80365 | 7.67161 | 3968 ft | 170 kts | 25° |
| 2026-04-16 14:40 | 47.81437 | 7.67918 | 3976 ft | 171 kts | 25° |
| 2026-04-16 14:40 | 47.82511 | 7.68678 | 3976 ft | 171 kts | 25° |
| 2026-04-16 14:40 | 47.83585 | 7.69439 | 3976 ft | 171 kts | 25° |
| 2026-04-16 14:41 | 47.84645 | 7.70191 | 3978 ft | 171 kts | 25° |
| 2026-04-16 14:41 | 47.85718 | 7.70951 | 3978 ft | 171 kts | 25° |
| 2026-04-16 14:41 | 47.86792 | 7.71713 | 3978 ft | 171 kts | 25° |
| 2026-04-16 14:41 | 47.87866 | 7.72475 | 3969 ft | 171 kts | 25° |
| 2026-04-16 14:42 | 47.88966 | 7.73257 | 3829 ft | 177 kts | 25° |
| 2026-04-16 14:42 | 47.90091 | 7.74058 | 3699 ft | 179 kts | 25° |
| 2026-04-16 14:42 | 47.91226 | 7.74864 | 3569 ft | 180 kts | 25° |
| 2026-04-16 14:42 | 47.92347 | 7.75660 | 3443 ft | 181 kts | 25° |
| 2026-04-16 14:43 | 47.93484 | 7.76469 | 3314 ft | 181 kts | 25° |
| 2026-04-16 14:43 | 47.94627 | 7.77282 | 3185 ft | 182 kts | 25° |
| 2026-04-16 14:43 | 47.95768 | 7.78094 | 3060 ft | 182 kts | 25° |
| 2026-04-16 14:43 | 47.96914 | 7.78909 | 2959 ft | 181 kts | 25° |
| 2026-04-16 14:44 | 47.98045 | 7.79716 | 2830 ft | 180 kts | 25° |
| 2026-04-16 14:44 | 47.99177 | 7.80524 | 2699 ft | 180 kts | 25° |
| 2026-04-16 14:44 | 48.00335 | 7.81275 | 2488 ft | 185 kts | 13° |
| 2026-04-16 14:44 | 48.01531 | 7.81148 | 2201 ft | 165 kts | 336° |
| 2026-04-16 14:45 | 48.02474 | 7.80281 | 2001 ft | 154 kts | 321° |
| 2026-04-16 14:45 | 48.03270 | 7.79308 | 1834 ft | 146 kts | 320° |
| 2026-04-16 14:45 | 48.04064 | 7.78436 | 1776 ft | 133 kts | 339° |
| 2026-04-16 14:45 | 48.04815 | 7.78955 | 1660 ft | 134 kts | 59° |
| 2026-04-16 14:46 | 48.05013 | 7.80301 | 1535 ft | 134 kts | 90° |
| 2026-04-16 14:46 | 48.04729 | 7.81597 | 1393 ft | 135 kts | 125° |
| 2026-04-16 14:46 | 48.04013 | 7.82350 | 1204 ft | 107 kts | 162° |
| 2026-04-16 14:46 | 48.03349 | 7.82674 | 992 ft | 96 kts | 161° |
| 2026-04-16 14:47 | 48.02738 | 7.83005 | 836 ft | 87 kts | 160° |
| 2026-04-16 14:47 | 48.02236 | 7.83281 | 819 ft | 85 kts | 162° |
| 2026-04-16 14:47 | 48.01643 | 7.83601 | 1004 ft | 95 kts | 158° |
| 2026-04-16 14:47 | 48.01010 | 7.83977 | 1167 ft | 100 kts | 157° |
| 2026-04-16 14:48 | 48.00371 | 7.84405 | 1339 ft | 105 kts | 156° |
| 2026-04-16 14:48 | 47.99680 | 7.84861 | 1436 ft | 115 kts | 156° |
| 2026-04-16 14:48 | 47.98945 | 7.84919 | 1658 ft | 106 kts | 222° |
| 2026-04-16 14:48 | 47.98962 | 7.83862 | 1618 ft | 123 kts | 298° |
| 2026-04-16 14:49 | 47.99389 | 7.82687 | 1621 ft | 130 kts | 298° |
| 2026-04-16 14:49 | 47.99852 | 7.81531 | 1746 ft | 128 kts | 302° |
| 2026-04-16 14:49 | 48.00338 | 7.80441 | 1879 ft | 128 kts | 313° |
| 2026-04-16 14:49 | 48.01121 | 7.79711 | 1875 ft | 138 kts | 333° |
| 2026-04-16 14:50 | 48.02026 | 7.79123 | 1802 ft | 146 kts | 332° |
| 2026-04-16 14:50 | 48.02956 | 7.78920 | 1844 ft | 131 kts | 22° |
| 2026-04-16 14:50 | 48.03639 | 7.79783 | 1750 ft | 117 kts | 49° |
| 2026-04-16 14:50 | 48.04057 | 7.80702 | 1673 ft | 103 kts | 56° |
| 2026-04-16 14:51 | 48.04288 | 7.81696 | 1490 ft | 104 kts | 94° |
| 2026-04-16 14:51 | 48.03852 | 7.82480 | 1256 ft | 103 kts | 159° |
| 2026-04-16 14:51 | 48.03228 | 7.82735 | 947 ft | 86 kts | 163° |
| 2026-04-16 14:51 | 48.02677 | 7.83041 | 820 ft | 79 kts | 160° |
| 2026-04-16 14:53 | 48.02276 | 7.83467 | 817 ft | 0 kts | 192° |